Eagle Tampa — S6NK6 — position and weather

sailwx.info

Track history (hours):
 
Tides and Currents Weather Stations Pressure Air Temp Water Temp Dewpoint Dewpoint Depression Visibility Wind Speed Wind Dir Waves Ship Positions

Eagle Tampa

Last reported at 2016-May-25 17:20 UTC. Time now 2016-May-25 22:47 UTC.
Position N 29°11' W 094°40'.

Length 247 m; draft 10.8 m.

Type: Tanker. MMSI: 563936000.

Date/timePositionNaut miles runAvg speedWind from/ knotsBaromVisibWave heightAir tempDewpointWater temp
2016-May-25 17:20N 29°11' W 094°40'0 0.0
2016-May-25 16:20N 29°11' W 094°40'0 0.0
2016-May-24 06:18N 29°11' W 094°40'79 2.2
2016-May-22 18:03N 29°31' W 093°13'5 9.4
2016-May-22 17:33N 29°35' W 093°16'8 7.8
2016-May-22 16:33N 29°42' W 093°20'10 9.6
2016-May-22 15:33N 29°51' W 093°21'8 7.9
2016-May-22 14:33N 29°59' W 093°20'6 6.0
2016-May-22 13:33N 30°05' W 093°20'5 5.1
2016-May-22 12:33N 30°10' W 093°19'1 1.1
2016-May-22 11:33N 30°09' W 093°20'0 0.0
2016-May-22 10:33N 30°09' W 093°20'0 0.0
2016-May-22 09:33N 30°09' W 093°20'0 0.0
2016-May-22 08:33N 30°09' W 093°20'0 0.0
2016-May-22 07:33N 30°09' W 093°20'0 0.0
2016-May-22 06:33N 30°09' W 093°20'0 0.0
2016-May-22 05:33N 30°09' W 093°20'0 0.0
2016-May-22 04:33N 30°09' W 093°20'0 0.0
2016-May-22 03:33N 30°09' W 093°20'0 0.0
2016-May-22 02:33N 30°09' W 093°20'0 0.0
2016-May-22 01:33N 30°09' W 093°20'0 0.0
2016-May-22 00:33N 30°09' W 093°20'0 0.0
2016-May-21 23:33N 30°09' W 093°20'0 0.0
2016-May-21 22:33N 30°09' W 093°20'0 0.0
2016-May-21 21:33N 30°09' W 093°20'0 0.0
2016-May-21 20:33N 30°09' W 093°20'0 0.0
2016-May-21 19:33N 30°09' W 093°20'0 0.0
2016-May-21 18:33N 30°09' W 093°20'0 0.0
2016-May-21 17:33N 30°09' W 093°20'0 0.0
2016-May-21 16:33N 30°09' W 093°20'0 0.0
2016-May-21 15:33N 30°09' W 093°20'0 0.0
2016-May-21 14:33N 30°09' W 093°20'0 0.0
2016-May-21 13:33N 30°09' W 093°20'0 0.0
2016-May-21 12:33N 30°09' W 093°20'0 0.0
2016-May-21 11:33N 30°09' W 093°20'0 0.0
2016-May-21 10:33N 30°09' W 093°20'0 0.0
2016-May-21 09:33N 30°09' W 093°20'0 0.0
2016-May-21 08:30N 30°09' W 093°20'0 0.0
2016-May-21 07:33N 30°09' W 093°20'0 0.0
2016-May-21 06:33N 30°09' W 093°20'0 0.0
2016-May-21 05:33N 30°09' W 093°20'0 0.0
2016-May-21 04:33N 30°09' W 093°20'0 0.0
2016-May-21 03:33N 30°09' W 093°20'0 0.0
2016-May-21 02:33N 30°09' W 093°20'3 3.2
2016-May-21 01:33N 30°06' W 093°20'5 5.0
2016-May-21 00:33N 30°01' W 093°20'5 5.2
2016-May-20 23:33N 29°56' W 093°20'6 6.2
2016-May-20 22:33N 29°50' W 093°21'6 5.9
2016-May-20 21:33N 29°44' W 093°20'8 8.3
2016-May-20 20:33N 29°36' W 093°18'18 7.7
2016-May-20 18:15N 29°19' W 093°11'0 0.0
2016-May-20 10:30N 29°19' W 093°11'0 0.0
2016-May-20 05:33N 29°19' W 093°11'0 0.0
2016-May-20 04:33N 29°19' W 093°11'0 0.0
2016-May-20 03:27N 29°19' W 093°11'0 0.1
2016-May-20 02:30N 29°19' W 093°11'0 0.0
2016-May-18 06:33N 29°19' W 093°11'  
Track history (hours):
 
Tides and Currents Weather Stations Pressure Air Temp Water Temp Dewpoint Dewpoint Depression Visibility Wind Speed Wind Dir Waves Ship Positions

Eagle Tampa

Last reported at 2016-May-25 17:20 UTC. Time now 2016-May-25 22:47 UTC.
Position N 29°11' W 094°40'.

Length 247 m; draft 10.8 m.

Type: Tanker. MMSI: 563936000.

Date/timePositionNaut miles runAvg speedWind from/ knotsBaromVisibWave heightAir tempDewpointWater temp
2016-May-25 17:20N 29°11' W 094°40'0 0.0
2016-May-25 16:20N 29°11' W 094°40'0 0.0
2016-May-24 06:18N 29°11' W 094°40'79 2.2
2016-May-22 18:03N 29°31' W 093°13'5 9.4
2016-May-22 17:33N 29°35' W 093°16'8 7.8
2016-May-22 16:33N 29°42' W 093°20'10 9.6
2016-May-22 15:33N 29°51' W 093°21'8 7.9
2016-May-22 14:33N 29°59' W 093°20'6 6.0
2016-May-22 13:33N 30°05' W 093°20'5 5.1
2016-May-22 12:33N 30°10' W 093°19'1 1.1
2016-May-22 11:33N 30°09' W 093°20'0 0.0
2016-May-22 10:33N 30°09' W 093°20'0 0.0
2016-May-22 09:33N 30°09' W 093°20'0 0.0
2016-May-22 08:33N 30°09' W 093°20'0 0.0
2016-May-22 07:33N 30°09' W 093°20'0 0.0
2016-May-22 06:33N 30°09' W 093°20'0 0.0
2016-May-22 05:33N 30°09' W 093°20'0 0.0
2016-May-22 04:33N 30°09' W 093°20'0 0.0
2016-May-22 03:33N 30°09' W 093°20'0 0.0
2016-May-22 02:33N 30°09' W 093°20'0 0.0
2016-May-22 01:33N 30°09' W 093°20'0 0.0
2016-May-22 00:33N 30°09' W 093°20'0 0.0
2016-May-21 23:33N 30°09' W 093°20'0 0.0
2016-May-21 22:33N 30°09' W 093°20'0 0.0
2016-May-21 21:33N 30°09' W 093°20'0 0.0
2016-May-21 20:33N 30°09' W 093°20'0 0.0
2016-May-21 19:33N 30°09' W 093°20'0 0.0
2016-May-21 18:33N 30°09' W 093°20'0 0.0
2016-May-21 17:33N 30°09' W 093°20'0 0.0
2016-May-21 16:33N 30°09' W 093°20'0 0.0
2016-May-21 15:33N 30°09' W 093°20'0 0.0
2016-May-21 14:33N 30°09' W 093°20'0 0.0
2016-May-21 13:33N 30°09' W 093°20'0 0.0
2016-May-21 12:33N 30°09' W 093°20'0 0.0
2016-May-21 11:33N 30°09' W 093°20'0 0.0
2016-May-21 10:33N 30°09' W 093°20'0 0.0
2016-May-21 09:33N 30°09' W 093°20'0 0.0
2016-May-21 08:30N 30°09' W 093°20'0 0.0
2016-May-21 07:33N 30°09' W 093°20'0 0.0
2016-May-21 06:33N 30°09' W 093°20'0 0.0
2016-May-21 05:33N 30°09' W 093°20'0 0.0
2016-May-21 04:33N 30°09' W 093°20'0 0.0
2016-May-21 03:33N 30°09' W 093°20'0 0.0
2016-May-21 02:33N 30°09' W 093°20'3 3.2
2016-May-21 01:33N 30°06' W 093°20'5 5.0
2016-May-21 00:33N 30°01' W 093°20'5 5.2
2016-May-20 23:33N 29°56' W 093°20'6 6.2
2016-May-20 22:33N 29°50' W 093°21'6 5.9
2016-May-20 21:33N 29°44' W 093°20'8 8.3
2016-May-20 20:33N 29°36' W 093°18'18 7.7
2016-May-20 18:15N 29°19' W 093°11'0 0.0
2016-May-20 10:30N 29°19' W 093°11'0 0.0
2016-May-20 05:33N 29°19' W 093°11'0 0.0
2016-May-20 04:33N 29°19' W 093°11'0 0.0
2016-May-20 03:27N 29°19' W 093°11'0 0.1
2016-May-20 02:30N 29°19' W 093°11'0 0.0
2016-May-18 06:33N 29°19' W 093°11'  

Dump ship's entire track history